sensor_id;sensor_type;location;lat;lon;timestamp;P1;durP1;ratioP1;P2;durP2;ratioP2
36423;SDS011;22458;45.328;9.514;2023-06-22T00:02:16;6.03;;;3.83;;
36423;SDS011;22458;45.328;9.514;2023-06-22T00:04:42;5.50;;;3.55;;
36423;SDS011;22458;45.328;9.514;2023-06-22T00:07:08;6.53;;;3.75;;
36423;SDS011;22458;45.328;9.514;2023-06-22T00:09:34;5.35;;;3.85;;
36423;SDS011;22458;45.328;9.514;2023-06-22T00:12:01;7.63;;;5.35;;
36423;SDS011;22458;45.328;9.514;2023-06-22T00:14:27;7.43;;;4.63;;
36423;SDS011;22458;45.328;9.514;2023-06-22T00:16:52;8.90;;;4.82;;
36423;SDS011;22458;45.328;9.514;2023-06-22T00:19:22;7.15;;;5.13;;
36423;SDS011;22458;45.328;9.514;2023-06-22T00:21:48;9.63;;;6.30;;
36423;SDS011;22458;45.328;9.514;2023-06-22T00:24:21;9.27;;;5.95;;
36423;SDS011;22458;45.328;9.514;2023-06-22T00:26:49;7.25;;;6.53;;
36423;SDS011;22458;45.328;9.514;2023-06-22T00:29:15;11.23;;;6.53;;
36423;SDS011;22458;45.328;9.514;2023-06-22T00:31:42;9.93;;;7.85;;
36423;SDS011;22458;45.328;9.514;2023-06-22T00:34:09;9.50;;;7.10;;
36423;SDS011;22458;45.328;9.514;2023-06-22T00:36:37;8.02;;;7.18;;
36423;SDS011;22458;45.328;9.514;2023-06-22T00:39:06;12.05;;;7.15;;
36423;SDS011;22458;45.328;9.514;2023-06-22T00:41:33;9.13;;;6.63;;
36423;SDS011;22458;45.328;9.514;2023-06-22T00:43:59;8.40;;;6.82;;
36423;SDS011;22458;45.328;9.514;2023-06-22T00:46:25;13.45;;;7.00;;
36423;SDS011;22458;45.328;9.514;2023-06-22T00:48:50;8.98;;;6.30;;
36423;SDS011;22458;45.328;9.514;2023-06-22T00:51:17;8.13;;;7.30;;
36423;SDS011;22458;45.328;9.514;2023-06-22T00:53:45;12.50;;;7.57;;
36423;SDS011;22458;45.328;9.514;2023-06-22T00:56:12;15.23;;;8.10;;
36423;SDS011;22458;45.328;9.514;2023-06-22T00:58:39;12.85;;;7.45;;
36423;SDS011;22458;45.328;9.514;2023-06-22T01:01:06;10.77;;;8.13;;
36423;SDS011;22458;45.328;9.514;2023-06-22T01:03:32;18.17;;;8.35;;
36423;SDS011;22458;45.328;9.514;2023-06-22T01:06:02;12.35;;;8.27;;
36423;SDS011;22458;45.328;9.514;2023-06-22T01:14:00;8.95;;;8.05;;
36423;SDS011;22458;45.328;9.514;2023-06-22T01:16:33;12.13;;;8.55;;
36423;SDS011;22458;45.328;9.514;2023-06-22T01:19:01;11.88;;;9.23;;
36423;SDS011;22458;45.328;9.514;2023-06-22T01:21:50;11.75;;;8.18;;
36423;SDS011;22458;45.328;9.514;2023-06-22T01:24:30;10.95;;;8.38;;
36423;SDS011;22458;45.328;9.514;2023-06-22T01:30:02;10.75;;;7.63;;
36423;SDS011;22458;45.328;9.514;2023-06-22T01:32:34;10.27;;;7.30;;
36423;SDS011;22458;45.328;9.514;2023-06-22T01:35:03;9.20;;;7.38;;
36423;SDS011;22458;45.328;9.514;2023-06-22T01:37:31;10.38;;;7.47;;
36423;SDS011;22458;45.328;9.514;2023-06-22T01:39:59;7.82;;;7.03;;
36423;SDS011;22458;45.328;9.514;2023-06-22T01:42:25;9.43;;;7.32;;
36423;SDS011;22458;45.328;9.514;2023-06-22T01:44:52;11.07;;;8.80;;
36423;SDS011;22458;45.328;9.514;2023-06-22T01:47:20;10.60;;;7.88;;
36423;SDS011;22458;45.328;9.514;2023-06-22T01:49:47;9.38;;;7.53;;
36423;SDS011;22458;45.328;9.514;2023-06-22T01:52:13;10.73;;;7.82;;
36423;SDS011;22458;45.328;9.514;2023-06-22T01:54:41;10.75;;;7.47;;
36423;SDS011;22458;45.328;9.514;2023-06-22T01:57:08;10.93;;;7.93;;
36423;SDS011;22458;45.328;9.514;2023-06-22T01:59:41;9.75;;;8.20;;
36423;SDS011;22458;45.328;9.514;2023-06-22T02:02:22;9.13;;;7.68;;
36423;SDS011;22458;45.328;9.514;2023-06-22T02:05:03;11.45;;;7.45;;
36423;SDS011;22458;45.328;9.514;2023-06-22T02:07:33;11.40;;;7.15;;
36423;SDS011;22458;45.328;9.514;2023-06-22T02:10:03;8.10;;;6.97;;
36423;SDS011;22458;45.328;9.514;2023-06-22T02:12:32;9.45;;;7.18;;
36423;SDS011;22458;45.328;9.514;2023-06-22T02:15:00;12.25;;;7.38;;
36423;SDS011;22458;45.328;9.514;2023-06-22T02:17:26;11.13;;;6.45;;
36423;SDS011;22458;45.328;9.514;2023-06-22T02:19:52;8.65;;;7.03;;
36423;SDS011;22458;45.328;9.514;2023-06-22T02:22:18;8.88;;;7.20;;
36423;SDS011;22458;45.328;9.514;2023-06-22T02:24:44;8.43;;;7.15;;
36423;SDS011;22458;45.328;9.514;2023-06-22T02:27:10;11.73;;;8.40;;
36423;SDS011;22458;45.328;9.514;2023-06-22T02:29:36;9.02;;;8.10;;
36423;SDS011;22458;45.328;9.514;2023-06-22T02:32:02;9.07;;;8.18;;
36423;SDS011;22458;45.328;9.514;2023-06-22T02:34:29;8.90;;;8.00;;
36423;SDS011;22458;45.328;9.514;2023-06-22T02:36:54;9.07;;;7.28;;
36423;SDS011;22458;45.328;9.514;2023-06-22T02:39:21;10.15;;;8.50;;
36423;SDS011;22458;45.328;9.514;2023-06-22T02:41:52;11.27;;;8.57;;
36423;SDS011;22458;45.328;9.514;2023-06-22T02:44:21;11.60;;;9.88;;
36423;SDS011;22458;45.328;9.514;2023-06-22T02:46:47;14.02;;;10.50;;
36423;SDS011;22458;45.328;9.514;2023-06-22T02:49:15;10.13;;;8.48;;
36423;SDS011;22458;45.328;9.514;2023-06-22T02:51:42;13.80;;;9.10;;
36423;SDS011;22458;45.328;9.514;2023-06-22T02:54:12;11.95;;;9.40;;
36423;SDS011;22458;45.328;9.514;2023-06-22T02:56:37;9.85;;;8.85;;
36423;SDS011;22458;45.328;9.514;2023-06-22T02:59:05;11.80;;;9.17;;
36423;SDS011;22458;45.328;9.514;2023-06-22T03:01:36;10.77;;;9.40;;
36423;SDS011;22458;45.328;9.514;2023-06-22T03:04:13;13.60;;;10.75;;
36423;SDS011;22458;45.328;9.514;2023-06-22T03:06:40;13.45;;;11.70;;
36423;SDS011;22458;45.328;9.514;2023-06-22T03:09:07;20.38;;;12.98;;
36423;SDS011;22458;45.328;9.514;2023-06-22T03:11:36;14.30;;;11.75;;
36423;SDS011;22458;45.328;9.514;2023-06-22T03:14:02;17.13;;;11.73;;
36423;SDS011;22458;45.328;9.514;2023-06-22T03:16:27;16.55;;;11.48;;
36423;SDS011;22458;45.328;9.514;2023-06-22T03:18:54;15.95;;;10.70;;
36423;SDS011;22458;45.328;9.514;2023-06-22T03:21:21;15.50;;;10.82;;
36423;SDS011;22458;45.328;9.514;2023-06-22T03:23:48;12.48;;;10.88;;
36423;SDS011;22458;45.328;9.514;2023-06-22T03:26:16;15.38;;;12.27;;
36423;SDS011;22458;45.328;9.514;2023-06-22T03:28:44;12.35;;;11.02;;
36423;SDS011;22458;45.328;9.514;2023-06-22T03:31:10;13.38;;;11.77;;
36423;SDS011;22458;45.328;9.514;2023-06-22T03:33:39;15.98;;;12.10;;
36423;SDS011;22458;45.328;9.514;2023-06-22T03:36:04;13.27;;;10.23;;
36423;SDS011;22458;45.328;9.514;2023-06-22T03:38:30;14.65;;;10.65;;
36423;SDS011;22458;45.328;9.514;2023-06-22T03:40:56;13.50;;;11.68;;
36423;SDS011;22458;45.328;9.514;2023-06-22T03:43:23;15.07;;;12.07;;
36423;SDS011;22458;45.328;9.514;2023-06-22T03:45:48;13.98;;;12.15;;
36423;SDS011;22458;45.328;9.514;2023-06-22T03:48:14;15.05;;;11.60;;
36423;SDS011;22458;45.328;9.514;2023-06-22T03:50:40;16.60;;;11.52;;
36423;SDS011;22458;45.328;9.514;2023-06-22T03:53:06;13.57;;;11.20;;
36423;SDS011;22458;45.328;9.514;2023-06-22T03:55:33;14.63;;;12.07;;
36423;SDS011;22458;45.328;9.514;2023-06-22T03:58:00;14.63;;;11.52;;
36423;SDS011;22458;45.328;9.514;2023-06-22T04:00:31;15.90;;;12.18;;
36423;SDS011;22458;45.328;9.514;2023-06-22T04:02:57;15.02;;;12.38;;
36423;SDS011;22458;45.328;9.514;2023-06-22T04:05:23;15.13;;;11.95;;
36423;SDS011;22458;45.328;9.514;2023-06-22T04:07:49;14.85;;;11.25;;
36423;SDS011;22458;45.328;9.514;2023-06-22T04:10:15;13.75;;;11.18;;
36423;SDS011;22458;45.328;9.514;2023-06-22T04:12:41;14.52;;;10.30;;
36423;SDS011;22458;45.328;9.514;2023-06-22T04:15:06;16.05;;;10.35;;
36423;SDS011;22458;45.328;9.514;2023-06-22T04:17:33;16.92;;;11.02;;
36423;SDS011;22458;45.328;9.514;2023-06-22T04:19:58;13.45;;;10.75;;
36423;SDS011;22458;45.328;9.514;2023-06-22T04:22:24;13.68;;;9.88;;
36423;SDS011;22458;45.328;9.514;2023-06-22T04:24:50;13.27;;;9.70;;
36423;SDS011;22458;45.328;9.514;2023-06-22T04:27:16;12.35;;;11.02;;
36423;SDS011;22458;45.328;9.514;2023-06-22T04:29:43;16.23;;;11.32;;
36423;SDS011;22458;45.328;9.514;2023-06-22T04:32:16;16.02;;;11.52;;
36423;SDS011;22458;45.328;9.514;2023-06-22T04:37:08;15.07;;;11.60;;
36423;SDS011;22458;45.328;9.514;2023-06-22T04:39:34;13.23;;;10.35;;
36423;SDS011;22458;45.328;9.514;2023-06-22T04:42:01;12.68;;;9.82;;
36423;SDS011;22458;45.328;9.514;2023-06-22T04:44:26;14.35;;;11.55;;
36423;SDS011;22458;45.328;9.514;2023-06-22T04:47:00;13.38;;;9.57;;
36423;SDS011;22458;45.328;9.514;2023-06-22T04:49:29;13.55;;;10.80;;
36423;SDS011;22458;45.328;9.514;2023-06-22T04:52:01;16.77;;;12.32;;
36423;SDS011;22458;45.328;9.514;2023-06-22T04:54:28;15.50;;;10.75;;
36423;SDS011;22458;45.328;9.514;2023-06-22T04:56:54;13.85;;;11.20;;
36423;SDS011;22458;45.328;9.514;2023-06-22T04:59:23;17.33;;;11.68;;
36423;SDS011;22458;45.328;9.514;2023-06-22T05:01:56;16.48;;;12.73;;
36423;SDS011;22458;45.328;9.514;2023-06-22T05:04:23;18.13;;;11.40;;
36423;SDS011;22458;45.328;9.514;2023-06-22T05:06:49;15.52;;;12.25;;
36423;SDS011;22458;45.328;9.514;2023-06-22T05:09:15;16.98;;;11.57;;
36423;SDS011;22458;45.328;9.514;2023-06-22T05:11:42;15.75;;;12.18;;
36423;SDS011;22458;45.328;9.514;2023-06-22T05:14:08;14.32;;;10.68;;
36423;SDS011;22458;45.328;9.514;2023-06-22T05:16:38;16.98;;;11.15;;
36423;SDS011;22458;45.328;9.514;2023-06-22T05:19:06;15.25;;;12.60;;
36423;SDS011;22458;45.328;9.514;2023-06-22T05:21:32;15.13;;;12.15;;
36423;SDS011;22458;45.328;9.514;2023-06-22T05:23:58;15.50;;;11.95;;
36423;SDS011;22458;45.328;9.514;2023-06-22T05:26:44;19.65;;;13.38;;
36423;SDS011;22458;45.328;9.514;2023-06-22T05:29:09;17.35;;;13.20;;
36423;SDS011;22458;45.328;9.514;2023-06-22T05:31:35;17.90;;;13.93;;
36423;SDS011;22458;45.328;9.514;2023-06-22T05:34:01;21.05;;;13.77;;
36423;SDS011;22458;45.328;9.514;2023-06-22T05:36:27;24.05;;;14.77;;
36423;SDS011;22458;45.328;9.514;2023-06-22T05:38:52;18.80;;;14.77;;
36423;SDS011;22458;45.328;9.514;2023-06-22T05:41:18;17.70;;;14.98;;
36423;SDS011;22458;45.328;9.514;2023-06-22T05:43:44;21.35;;;16.90;;
36423;SDS011;22458;45.328;9.514;2023-06-22T05:46:10;21.00;;;16.10;;
36423;SDS011;22458;45.328;9.514;2023-06-22T05:48:36;20.05;;;15.80;;
36423;SDS011;22458;45.328;9.514;2023-06-22T05:51:02;21.70;;;15.07;;
36423;SDS011;22458;45.328;9.514;2023-06-22T05:53:28;19.45;;;15.13;;
36423;SDS011;22458;45.328;9.514;2023-06-22T05:55:54;19.33;;;15.18;;
36423;SDS011;22458;45.328;9.514;2023-06-22T05:58:19;22.73;;;16.10;;
36423;SDS011;22458;45.328;9.514;2023-06-22T06:00:45;19.58;;;15.52;;
36423;SDS011;22458;45.328;9.514;2023-06-22T06:03:11;19.55;;;15.20;;
36423;SDS011;22458;45.328;9.514;2023-06-22T06:05:37;18.30;;;14.85;;
36423;SDS011;22458;45.328;9.514;2023-06-22T06:08:04;19.17;;;14.98;;
36423;SDS011;22458;45.328;9.514;2023-06-22T06:10:31;22.63;;;15.98;;
36423;SDS011;22458;45.328;9.514;2023-06-22T06:12:58;21.55;;;14.30;;
36423;SDS011;22458;45.328;9.514;2023-06-22T06:15:26;20.63;;;14.50;;
36423;SDS011;22458;45.328;9.514;2023-06-22T06:17:53;19.77;;;13.93;;
36423;SDS011;22458;45.328;9.514;2023-06-22T06:20:20;18.17;;;13.75;;
36423;SDS011;22458;45.328;9.514;2023-06-22T06:22:48;18.93;;;13.03;;
36423;SDS011;22458;45.328;9.514;2023-06-22T06:25:14;23.38;;;13.40;;
36423;SDS011;22458;45.328;9.514;2023-06-22T06:27:49;20.85;;;13.77;;
36423;SDS011;22458;45.328;9.514;2023-06-22T06:30:17;22.55;;;13.45;;
36423;SDS011;22458;45.328;9.514;2023-06-22T06:32:45;26.10;;;18.15;;
36423;SDS011;22458;45.328;9.514;2023-06-22T06:35:12;23.83;;;14.90;;
36423;SDS011;22458;45.328;9.514;2023-06-22T06:37:39;22.65;;;13.45;;
36423;SDS011;22458;45.328;9.514;2023-06-22T06:40:07;22.63;;;12.95;;
36423;SDS011;22458;45.328;9.514;2023-06-22T06:42:38;19.15;;;14.52;;
36423;SDS011;22458;45.328;9.514;2023-06-22T06:45:12;18.80;;;14.57;;
36423;SDS011;22458;45.328;9.514;2023-06-22T06:47:43;26.10;;;14.30;;
36423;SDS011;22458;45.328;9.514;2023-06-22T06:50:09;22.92;;;13.85;;
36423;SDS011;22458;45.328;9.514;2023-06-22T06:52:36;18.38;;;14.07;;
36423;SDS011;22458;45.328;9.514;2023-06-22T06:55:02;22.23;;;14.15;;
36423;SDS011;22458;45.328;9.514;2023-06-22T06:57:29;26.33;;;17.33;;
36423;SDS011;22458;45.328;9.514;2023-06-22T06:59:56;16.73;;;14.75;;
36423;SDS011;22458;45.328;9.514;2023-06-22T07:02:22;19.67;;;14.80;;
36423;SDS011;22458;45.328;9.514;2023-06-22T07:04:49;21.98;;;14.30;;
36423;SDS011;22458;45.328;9.514;2023-06-22T07:07:14;18.15;;;14.50;;
36423;SDS011;22458;45.328;9.514;2023-06-22T07:09:40;22.25;;;14.93;;
36423;SDS011;22458;45.328;9.514;2023-06-22T07:12:06;19.67;;;14.88;;
36423;SDS011;22458;45.328;9.514;2023-06-22T07:14:32;22.90;;;16.42;;
36423;SDS011;22458;45.328;9.514;2023-06-22T07:16:58;19.60;;;16.45;;
36423;SDS011;22458;45.328;9.514;2023-06-22T07:19:25;22.75;;;18.05;;
36423;SDS011;22458;45.328;9.514;2023-06-22T07:21:55;21.65;;;15.82;;
36423;SDS011;22458;45.328;9.514;2023-06-22T07:24:21;28.90;;;19.02;;
36423;SDS011;22458;45.328;9.514;2023-06-22T07:26:48;22.67;;;15.35;;
36423;SDS011;22458;45.328;9.514;2023-06-22T07:29:15;21.42;;;16.27;;
36423;SDS011;22458;45.328;9.514;2023-06-22T07:31:48;23.65;;;16.15;;
36423;SDS011;22458;45.328;9.514;2023-06-22T07:34:16;37.70;;;28.77;;
36423;SDS011;22458;45.328;9.514;2023-06-22T07:36:42;26.52;;;18.52;;
36423;SDS011;22458;45.328;9.514;2023-06-22T07:39:09;27.08;;;20.08;;
36423;SDS011;22458;45.328;9.514;2023-06-22T07:41:35;23.80;;;18.17;;
36423;SDS011;22458;45.328;9.514;2023-06-22T07:44:02;21.63;;;16.67;;
36423;SDS011;22458;45.328;9.514;2023-06-22T07:46:28;23.33;;;15.93;;
36423;SDS011;22458;45.328;9.514;2023-06-22T07:48:58;27.02;;;15.68;;
36423;SDS011;22458;45.328;9.514;2023-06-22T07:51:25;20.52;;;17.00;;
36423;SDS011;22458;45.328;9.514;2023-06-22T07:53:51;27.48;;;19.92;;
36423;SDS011;22458;45.328;9.514;2023-06-22T07:56:17;23.63;;;17.63;;
36423;SDS011;22458;45.328;9.514;2023-06-22T07:58:45;28.02;;;17.17;;
36423;SDS011;22458;45.328;9.514;2023-06-22T08:01:12;20.95;;;17.73;;
36423;SDS011;22458;45.328;9.514;2023-06-22T08:03:41;22.50;;;17.75;;
36423;SDS011;22458;45.328;9.514;2023-06-22T08:06:07;23.33;;;17.33;;
36423;SDS011;22458;45.328;9.514;2023-06-22T08:08:34;23.10;;;16.98;;
36423;SDS011;22458;45.328;9.514;2023-06-22T08:11:01;22.45;;;17.77;;
36423;SDS011;22458;45.328;9.514;2023-06-22T08:13:26;29.45;;;17.30;;
36423;SDS011;22458;45.328;9.514;2023-06-22T08:15:52;25.92;;;16.35;;
36423;SDS011;22458;45.328;9.514;2023-06-22T08:18:18;18.38;;;14.00;;
36423;SDS011;22458;45.328;9.514;2023-06-22T08:20:44;20.15;;;15.77;;
36423;SDS011;22458;45.328;9.514;2023-06-22T08:23:10;21.10;;;16.08;;
36423;SDS011;22458;45.328;9.514;2023-06-22T08:25:35;22.85;;;14.68;;
36423;SDS011;22458;45.328;9.514;2023-06-22T08:28:02;26.95;;;14.90;;
36423;SDS011;22458;45.328;9.514;2023-06-22T08:30:29;26.33;;;17.02;;
36423;SDS011;22458;45.328;9.514;2023-06-22T08:32:54;25.23;;;16.60;;
36423;SDS011;22458;45.328;9.514;2023-06-22T08:35:21;24.13;;;16.98;;
36423;SDS011;22458;45.328;9.514;2023-06-22T08:37:48;20.35;;;15.35;;
36423;SDS011;22458;45.328;9.514;2023-06-22T08:40:18;17.40;;;14.57;;
36423;SDS011;22458;45.328;9.514;2023-06-22T08:42:45;22.58;;;14.77;;
36423;SDS011;22458;45.328;9.514;2023-06-22T08:45:11;24.55;;;14.93;;
36423;SDS011;22458;45.328;9.514;2023-06-22T08:47:37;22.55;;;15.57;;
36423;SDS011;22458;45.328;9.514;2023-06-22T08:50:04;17.50;;;14.05;;
36423;SDS011;22458;45.328;9.514;2023-06-22T08:52:31;22.65;;;15.23;;
36423;SDS011;22458;45.328;9.514;2023-06-22T08:54:59;19.85;;;14.75;;
36423;SDS011;22458;45.328;9.514;2023-06-22T08:57:25;20.77;;;15.25;;
36423;SDS011;22458;45.328;9.514;2023-06-22T08:59:51;18.00;;;14.02;;
36423;SDS011;22458;45.328;9.514;2023-06-22T09:02:18;21.85;;;15.15;;
36423;SDS011;22458;45.328;9.514;2023-06-22T09:04:45;20.40;;;15.45;;
36423;SDS011;22458;45.328;9.514;2023-06-22T09:07:11;20.95;;;15.93;;
36423;SDS011;22458;45.328;9.514;2023-06-22T09:09:39;27.90;;;15.90;;
36423;SDS011;22458;45.328;9.514;2023-06-22T09:12:06;21.30;;;13.80;;
36423;SDS011;22458;45.328;9.514;2023-06-22T09:14:33;16.75;;;12.80;;
36423;SDS011;22458;45.328;9.514;2023-06-22T09:16:58;19.33;;;16.13;;
36423;SDS011;22458;45.328;9.514;2023-06-22T09:19:24;20.02;;;15.13;;
36423;SDS011;22458;45.328;9.514;2023-06-22T09:21:50;20.27;;;13.88;;
36423;SDS011;22458;45.328;9.514;2023-06-22T09:24:16;19.55;;;15.15;;
36423;SDS011;22458;45.328;9.514;2023-06-22T09:26:47;21.75;;;15.50;;
36423;SDS011;22458;45.328;9.514;2023-06-22T09:29:12;17.92;;;13.35;;
36423;SDS011;22458;45.328;9.514;2023-06-22T09:31:38;16.90;;;13.93;;
36423;SDS011;22458;45.328;9.514;2023-06-22T09:34:30;19.85;;;13.55;;
36423;SDS011;22458;45.328;9.514;2023-06-22T09:36:56;16.60;;;13.15;;
36423;SDS011;22458;45.328;9.514;2023-06-22T09:39:22;15.57;;;12.75;;
36423;SDS011;22458;45.328;9.514;2023-06-22T09:42:03;22.00;;;12.93;;
36423;SDS011;22458;45.328;9.514;2023-06-22T09:44:31;14.95;;;11.52;;
36423;SDS011;22458;45.328;9.514;2023-06-22T09:46:58;22.70;;;12.40;;
36423;SDS011;22458;45.328;9.514;2023-06-22T09:49:28;16.83;;;12.65;;
36423;SDS011;22458;45.328;9.514;2023-06-22T09:51:54;13.60;;;11.27;;
36423;SDS011;22458;45.328;9.514;2023-06-22T09:54:20;18.98;;;12.90;;
36423;SDS011;22458;45.328;9.514;2023-06-22T09:56:46;16.77;;;11.77;;
36423;SDS011;22458;45.328;9.514;2023-06-22T09:59:12;16.65;;;12.38;;
36423;SDS011;22458;45.328;9.514;2023-06-22T10:01:38;15.43;;;11.43;;
36423;SDS011;22458;45.328;9.514;2023-06-22T10:04:04;12.60;;;9.23;;
36423;SDS011;22458;45.328;9.514;2023-06-22T10:06:31;16.58;;;11.82;;
36423;SDS011;22458;45.328;9.514;2023-06-22T10:08:57;15.75;;;10.93;;
36423;SDS011;22458;45.328;9.514;2023-06-22T10:11:22;16.63;;;11.75;;
36423;SDS011;22458;45.328;9.514;2023-06-22T10:13:55;14.35;;;10.40;;
36423;SDS011;22458;45.328;9.514;2023-06-22T10:16:23;17.77;;;10.57;;
36423;SDS011;22458;45.328;9.514;2023-06-22T10:18:51;15.80;;;7.85;;
36423;SDS011;22458;45.328;9.514;2023-06-22T10:21:17;14.23;;;8.57;;
36423;SDS011;22458;45.328;9.514;2023-06-22T10:23:43;13.27;;;7.57;;
36423;SDS011;22458;45.328;9.514;2023-06-22T10:26:08;10.70;;;7.28;;
36423;SDS011;22458;45.328;9.514;2023-06-22T10:28:38;13.75;;;7.15;;
36423;SDS011;22458;45.328;9.514;2023-06-22T10:31:04;8.85;;;6.35;;
36423;SDS011;22458;45.328;9.514;2023-06-22T10:33:30;12.25;;;6.95;;
36423;SDS011;22458;45.328;9.514;2023-06-22T10:35:56;8.80;;;7.00;;
36423;SDS011;22458;45.328;9.514;2023-06-22T10:38:21;17.90;;;8.65;;
36423;SDS011;22458;45.328;9.514;2023-06-22T10:40:47;12.18;;;7.82;;
36423;SDS011;22458;45.328;9.514;2023-06-22T10:43:14;10.32;;;7.45;;
36423;SDS011;22458;45.328;9.514;2023-06-22T10:45:40;23.27;;;12.13;;
36423;SDS011;22458;45.328;9.514;2023-06-22T10:48:05;19.23;;;11.48;;
36423;SDS011;22458;45.328;9.514;2023-06-22T10:50:31;14.25;;;10.13;;
36423;SDS011;22458;45.328;9.514;2023-06-22T10:52:57;15.75;;;11.02;;
36423;SDS011;22458;45.328;9.514;2023-06-22T10:55:23;12.18;;;9.82;;
36423;SDS011;22458;45.328;9.514;2023-06-22T10:57:48;16.23;;;10.68;;
36423;SDS011;22458;45.328;9.514;2023-06-22T11:00:15;13.90;;;10.00;;
36423;SDS011;22458;45.328;9.514;2023-06-22T11:02:41;18.40;;;9.95;;
36423;SDS011;22458;45.328;9.514;2023-06-22T11:05:07;11.73;;;9.32;;
36423;SDS011;22458;45.328;9.514;2023-06-22T11:07:33;14.60;;;8.18;;
36423;SDS011;22458;45.328;9.514;2023-06-22T11:09:59;12.10;;;7.53;;
36423;SDS011;22458;45.328;9.514;2023-06-22T11:12:25;10.63;;;6.75;;
36423;SDS011;22458;45.328;9.514;2023-06-22T11:14:50;9.80;;;5.97;;
36423;SDS011;22458;45.328;9.514;2023-06-22T11:17:17;14.50;;;7.65;;
36423;SDS011;22458;45.328;9.514;2023-06-22T11:19:49;10.55;;;8.05;;
36423;SDS011;22458;45.328;9.514;2023-06-22T11:22:17;9.57;;;7.22;;
36423;SDS011;22458;45.328;9.514;2023-06-22T11:24:43;9.45;;;7.13;;
36423;SDS011;22458;45.328;9.514;2023-06-22T11:27:09;16.27;;;7.75;;
36423;SDS011;22458;45.328;9.514;2023-06-22T11:29:35;11.70;;;7.95;;
36423;SDS011;22458;45.328;9.514;2023-06-22T11:32:02;7.60;;;6.10;;
36423;SDS011;22458;45.328;9.514;2023-06-22T11:34:30;9.23;;;6.25;;
36423;SDS011;22458;45.328;9.514;2023-06-22T11:36:59;8.20;;;5.78;;
36423;SDS011;22458;45.328;9.514;2023-06-22T11:39:25;6.65;;;5.10;;
36423;SDS011;22458;45.328;9.514;2023-06-22T11:41:50;6.63;;;4.63;;
36423;SDS011;22458;45.328;9.514;2023-06-22T11:44:16;11.75;;;5.55;;
36423;SDS011;22458;45.328;9.514;2023-06-22T11:46:42;6.22;;;5.05;;
36423;SDS011;22458;45.328;9.514;2023-06-22T11:49:10;7.85;;;5.13;;
36423;SDS011;22458;45.328;9.514;2023-06-22T11:51:36;5.03;;;4.10;;
36423;SDS011;22458;45.328;9.514;2023-06-22T11:54:02;5.53;;;4.50;;
36423;SDS011;22458;45.328;9.514;2023-06-22T11:56:28;7.40;;;4.35;;
36423;SDS011;22458;45.328;9.514;2023-06-22T11:58:54;6.72;;;3.90;;
36423;SDS011;22458;45.328;9.514;2023-06-22T12:01:20;6.90;;;4.05;;
36423;SDS011;22458;45.328;9.514;2023-06-22T12:03:46;5.97;;;4.53;;
36423;SDS011;22458;45.328;9.514;2023-06-22T12:06:13;8.30;;;4.93;;
36423;SDS011;22458;45.328;9.514;2023-06-22T12:08:38;9.55;;;5.25;;
36423;SDS011;22458;45.328;9.514;2023-06-22T12:11:29;11.60;;;5.45;;
36423;SDS011;22458;45.328;9.514;2023-06-22T12:13:56;11.60;;;5.38;;
36423;SDS011;22458;45.328;9.514;2023-06-22T12:16:27;8.52;;;5.45;;
36423;SDS011;22458;45.328;9.514;2023-06-22T12:18:53;6.40;;;5.10;;
36423;SDS011;22458;45.328;9.514;2023-06-22T12:21:19;9.60;;;5.75;;
36423;SDS011;22458;45.328;9.514;2023-06-22T12:23:44;6.90;;;5.03;;
36423;SDS011;22458;45.328;9.514;2023-06-22T12:26:10;8.57;;;5.40;;
36423;SDS011;22458;45.328;9.514;2023-06-22T12:28:36;7.38;;;4.82;;
36423;SDS011;22458;45.328;9.514;2023-06-22T12:31:02;9.70;;;5.35;;
36423;SDS011;22458;45.328;9.514;2023-06-22T12:33:27;9.02;;;6.13;;
36423;SDS011;22458;45.328;9.514;2023-06-22T12:35:55;8.82;;;5.38;;
36423;SDS011;22458;45.328;9.514;2023-06-22T12:38:21;6.60;;;4.72;;
36423;SDS011;22458;45.328;9.514;2023-06-22T12:40:47;9.65;;;4.88;;
36423;SDS011;22458;45.328;9.514;2023-06-22T12:43:17;7.95;;;4.70;;
36423;SDS011;22458;45.328;9.514;2023-06-22T12:45:43;9.98;;;5.07;;
36423;SDS011;22458;45.328;9.514;2023-06-22T12:48:09;7.20;;;5.07;;
36423;SDS011;22458;45.328;9.514;2023-06-22T12:50:34;6.13;;;4.55;;
36423;SDS011;22458;45.328;9.514;2023-06-22T12:53:00;8.18;;;4.85;;
36423;SDS011;22458;45.328;9.514;2023-06-22T12:55:30;9.20;;;5.03;;
36423;SDS011;22458;45.328;9.514;2023-06-22T12:57:55;6.57;;;4.88;;
36423;SDS011;22458;45.328;9.514;2023-06-22T13:00:21;6.20;;;4.93;;
36423;SDS011;22458;45.328;9.514;2023-06-22T13:02:47;15.30;;;5.45;;
36423;SDS011;22458;45.328;9.514;2023-06-22T13:05:13;8.73;;;4.57;;
36423;SDS011;22458;45.328;9.514;2023-06-22T13:07:38;8.23;;;4.70;;
36423;SDS011;22458;45.328;9.514;2023-06-22T13:10:04;7.75;;;4.72;;
36423;SDS011;22458;45.328;9.514;2023-06-22T13:12:30;5.20;;;4.60;;
36423;SDS011;22458;45.328;9.514;2023-06-22T13:14:56;5.95;;;4.90;;
36423;SDS011;22458;45.328;9.514;2023-06-22T13:17:21;6.88;;;5.10;;
36423;SDS011;22458;45.328;9.514;2023-06-22T13:19:47;7.38;;;4.35;;
36423;SDS011;22458;45.328;9.514;2023-06-22T13:22:34;7.03;;;4.43;;
36423;SDS011;22458;45.328;9.514;2023-06-22T13:25:07;8.75;;;4.47;;
36423;SDS011;22458;45.328;9.514;2023-06-22T13:27:37;9.77;;;5.25;;
36423;SDS011;22458;45.328;9.514;2023-06-22T13:30:04;5.97;;;4.85;;
36423;SDS011;22458;45.328;9.514;2023-06-22T13:32:30;12.38;;;5.88;;
36423;SDS011;22458;45.328;9.514;2023-06-22T13:34:56;10.07;;;5.00;;
36423;SDS011;22458;45.328;9.514;2023-06-22T13:37:23;6.72;;;4.72;;
36423;SDS011;22458;45.328;9.514;2023-06-22T13:39:48;8.15;;;4.80;;
36423;SDS011;22458;45.328;9.514;2023-06-22T13:42:14;16.40;;;5.53;;
36423;SDS011;22458;45.328;9.514;2023-06-22T13:44:40;7.45;;;4.90;;
36423;SDS011;22458;45.328;9.514;2023-06-22T13:47:06;9.07;;;4.45;;
36423;SDS011;22458;45.328;9.514;2023-06-22T13:49:32;6.72;;;4.75;;
36423;SDS011;22458;45.328;9.514;2023-06-22T13:51:58;6.70;;;4.55;;
36423;SDS011;22458;45.328;9.514;2023-06-22T13:54:25;4.68;;;3.90;;
36423;SDS011;22458;45.328;9.514;2023-06-22T13:56:51;8.00;;;4.10;;
36423;SDS011;22458;45.328;9.514;2023-06-22T13:59:16;5.75;;;4.15;;
36423;SDS011;22458;45.328;9.514;2023-06-22T14:01:42;6.80;;;4.55;;
36423;SDS011;22458;45.328;9.514;2023-06-22T14:04:08;8.65;;;4.40;;
36423;SDS011;22458;45.328;9.514;2023-06-22T14:06:34;9.48;;;4.10;;
36423;SDS011;22458;45.328;9.514;2023-06-22T14:09:00;7.20;;;4.45;;
36423;SDS011;22458;45.328;9.514;2023-06-22T14:11:26;8.27;;;3.88;;
36423;SDS011;22458;45.328;9.514;2023-06-22T14:13:52;9.73;;;4.65;;
36423;SDS011;22458;45.328;9.514;2023-06-22T14:16:20;6.25;;;4.22;;
36423;SDS011;22458;45.328;9.514;2023-06-22T14:19:13;6.70;;;4.60;;
36423;SDS011;22458;45.328;9.514;2023-06-22T14:21:38;7.82;;;4.93;;
36423;SDS011;22458;45.328;9.514;2023-06-22T14:24:04;6.15;;;4.45;;
36423;SDS011;22458;45.328;9.514;2023-06-22T14:26:31;6.38;;;4.40;;
36423;SDS011;22458;45.328;9.514;2023-06-22T14:28:57;6.65;;;4.00;;
36423;SDS011;22458;45.328;9.514;2023-06-22T14:31:23;9.25;;;4.80;;
36423;SDS011;22458;45.328;9.514;2023-06-22T14:33:49;6.95;;;4.20;;
36423;SDS011;22458;45.328;9.514;2023-06-22T14:36:16;7.68;;;4.35;;
36423;SDS011;22458;45.328;9.514;2023-06-22T14:38:45;7.47;;;4.30;;
36423;SDS011;22458;45.328;9.514;2023-06-22T14:41:11;8.38;;;4.97;;
36423;SDS011;22458;45.328;9.514;2023-06-22T14:43:38;5.93;;;4.60;;
36423;SDS011;22458;45.328;9.514;2023-06-22T14:46:03;6.65;;;4.00;;